createdAt,value
2023-05-26T00:05:12.303Z,3.67
2023-05-26T00:10:04.494Z,3.90
2023-05-26T00:14:56.513Z,3.78
2023-05-26T00:19:50.449Z,3.43
2023-05-26T00:24:43.543Z,4.03
2023-05-26T00:29:35.477Z,3.60
2023-05-26T00:34:27.346Z,3.80
2023-05-26T00:39:19.256Z,4.10
2023-05-26T00:44:12.564Z,3.72
2023-05-26T00:49:04.685Z,4.00
2023-05-26T00:53:56.808Z,3.72
2023-05-26T00:58:48.653Z,3.80
2023-05-26T01:03:40.764Z,3.60
2023-05-26T01:08:33.642Z,3.90
2023-05-26T01:13:28.985Z,3.45
2023-05-26T01:18:38.212Z,3.75
2023-05-26T01:23:57.553Z,3.25
2023-05-26T01:29:03.162Z,3.90
2023-05-26T01:33:55.075Z,3.53
2023-05-26T01:38:47.354Z,3.35
2023-05-26T01:43:46.815Z,3.70
2023-05-26T01:48:41.631Z,3.42
2023-05-26T01:53:35.324Z,4.10
2023-05-26T01:58:27.916Z,3.70
2023-05-26T02:08:12.534Z,4.05
2023-05-26T02:13:04.611Z,3.78
2023-05-26T02:22:50.898Z,3.63
2023-05-26T02:27:43.078Z,3.63
2023-05-26T02:32:38.996Z,3.30
2023-05-26T02:37:31.422Z,3.20
2023-05-26T02:42:23.557Z,3.78
2023-05-26T02:47:15.480Z,3.45
2023-05-26T02:52:07.464Z,3.43
2023-05-26T02:56:59.392Z,3.47
2023-05-26T03:01:51.444Z,3.40
2023-05-26T03:06:43.489Z,3.28
2023-05-26T03:11:37.370Z,3.35
2023-05-26T03:16:30.253Z,3.20
2023-05-26T03:21:47.012Z,3.22
2023-05-26T03:26:36.081Z,3.70
2023-05-26T03:31:28.343Z,3.50
2023-05-26T03:36:23.358Z,3.60
2023-05-26T03:41:19.981Z,3.65
2023-05-26T03:46:18.269Z,3.08
2023-05-26T03:51:10.192Z,3.23
2023-05-26T03:56:02.254Z,3.43
2023-05-26T04:00:54.143Z,3.67
2023-05-26T04:05:46.817Z,3.53
2023-05-26T04:10:38.851Z,3.08
2023-05-26T04:15:30.829Z,3.07
2023-05-26T04:20:22.837Z,3.13
2023-05-26T04:25:14.786Z,2.90
2023-05-26T04:30:23.926Z,3.00
2023-05-26T04:35:40.313Z,3.20
2023-05-26T04:40:36.064Z,3.08
2023-05-26T04:45:28.392Z,3.50
2023-05-26T04:50:24.298Z,3.03
2023-05-26T04:55:16.992Z,3.40
2023-05-26T05:00:11.549Z,3.40
2023-05-26T05:05:05.275Z,3.63
2023-05-26T05:09:57.610Z,3.33
2023-05-26T05:14:49.714Z,3.13
2023-05-26T05:19:42.434Z,3.20
2023-05-26T05:24:34.842Z,3.03
2023-05-26T05:29:27.112Z,3.03
2023-05-26T05:34:21.302Z,3.17
2023-05-26T05:39:13.468Z,3.47
2023-05-26T05:44:05.622Z,3.00
2023-05-26T05:48:57.521Z,3.07
2023-05-26T05:54:08.410Z,3.20
2023-05-26T05:59:00.319Z,3.17
2023-05-26T06:03:52.357Z,3.23
2023-05-26T06:08:44.514Z,3.10
2023-05-26T06:13:36.469Z,2.90
2023-05-26T06:18:28.840Z,2.80
2023-05-26T06:23:21.000Z,3.00
2023-05-26T06:28:13.068Z,2.80
2023-05-26T06:33:05.281Z,2.90
2023-05-26T06:37:58.337Z,3.22
2023-05-26T06:42:50.302Z,2.90
2023-05-26T06:47:42.506Z,3.30
2023-05-26T06:52:37.264Z,2.85
2023-05-26T06:57:29.196Z,3.00
2023-05-26T07:02:21.764Z,3.17
2023-05-26T07:07:16.859Z,3.10
2023-05-26T07:12:10.804Z,3.15
2023-05-26T07:17:11.115Z,2.97
2023-05-26T07:22:05.622Z,2.92
2023-05-26T07:27:01.327Z,3.15
2023-05-26T07:31:53.373Z,3.20
2023-05-26T07:36:46.440Z,3.00
2023-05-26T07:41:38.507Z,2.90
2023-05-26T07:46:30.519Z,3.10
2023-05-26T07:51:22.428Z,3.07
2023-05-26T07:56:14.396Z,3.00
2023-05-26T08:01:08.070Z,3.30
2023-05-26T08:06:02.980Z,3.05
2023-05-26T08:15:54.627Z,3.10
2023-05-26T08:20:46.740Z,3.13
2023-05-26T08:25:38.670Z,2.90
2023-05-26T08:30:30.747Z,3.50
2023-05-26T08:35:22.823Z,3.00
2023-05-26T08:40:15.967Z,3.38
2023-05-26T08:45:08.509Z,3.00
2023-05-26T08:50:06.380Z,2.97
2023-05-26T08:54:58.236Z,2.92
2023-05-26T08:59:50.618Z,3.27
2023-05-26T09:04:42.843Z,3.05
2023-05-26T09:09:34.980Z,3.25
2023-05-26T09:14:26.946Z,2.95
2023-05-26T09:19:19.440Z,3.67
2023-05-26T09:24:11.381Z,2.80
2023-05-26T09:29:04.354Z,3.20
2023-05-26T09:33:56.390Z,3.15
2023-05-26T09:38:48.440Z,3.22
2023-05-26T09:43:40.404Z,3.10
2023-05-26T09:48:34.968Z,3.00
2023-05-26T09:53:27.434Z,3.20
2023-05-26T09:58:19.599Z,2.95
2023-05-26T10:03:12.527Z,3.10
2023-05-26T10:08:06.859Z,2.88
2023-05-26T10:12:59.127Z,3.10
2023-05-26T10:17:51.237Z,3.20
2023-05-26T10:22:56.347Z,3.20
2023-05-26T10:28:07.037Z,2.88
2023-05-26T10:33:09.939Z,2.72
2023-05-26T10:38:04.505Z,2.88
2023-05-26T10:43:03.463Z,3.20
2023-05-26T10:48:00.186Z,2.90
2023-05-26T10:52:52.823Z,2.80
2023-05-26T11:02:38.445Z,3.00
2023-05-26T11:07:31.048Z,2.95
2023-05-26T11:17:14.839Z,3.13
2023-05-26T11:22:11.317Z,2.77
2023-05-26T11:27:04.751Z,2.95
2023-05-26T11:31:57.111Z,2.90
2023-05-26T11:36:54.853Z,3.10
2023-05-26T11:41:47.361Z,3.15
2023-05-26T11:46:40.241Z,2.83
2023-05-26T11:51:33.263Z,3.00
2023-05-26T11:56:35.675Z,3.03
2023-05-26T12:01:27.787Z,3.13
2023-05-26T12:11:26.923Z,3.28
2023-05-26T12:16:28.389Z,3.00
2023-05-26T12:21:21.325Z,3.10
2023-05-26T12:26:21.313Z,3.15
2023-05-26T12:31:13.212Z,3.15
2023-05-26T12:36:06.602Z,2.70
2023-05-26T12:40:58.554Z,2.97
2023-05-26T12:45:50.438Z,2.47
2023-05-26T12:50:42.376Z,2.83
2023-05-26T12:55:34.281Z,3.00
2023-05-26T13:00:26.142Z,2.80
2023-05-26T13:05:18.154Z,3.10
2023-05-26T13:10:10.589Z,3.00
2023-05-26T13:15:03.121Z,3.00
2023-05-26T13:24:48.678Z,2.75
2023-05-26T13:29:42.052Z,3.03
2023-05-26T13:34:33.976Z,2.78
2023-05-26T13:39:26.393Z,2.90
2023-05-26T13:44:18.310Z,3.10
2023-05-26T13:49:10.247Z,3.20
2023-05-26T13:54:03.083Z,2.80
2023-05-26T13:58:55.324Z,2.88
2023-05-26T14:03:48.382Z,2.90
2023-05-26T14:08:40.547Z,2.60
2023-05-26T14:13:32.512Z,3.10
2023-05-26T14:18:24.986Z,2.60
2023-05-26T14:28:08.760Z,2.72
2023-05-26T14:33:05.077Z,3.03
2023-05-26T14:37:57.213Z,3.05
2023-05-26T14:42:49.208Z,2.83
2023-05-26T14:47:41.102Z,2.70
2023-05-26T14:52:33.071Z,2.80
2023-05-26T14:57:24.966Z,2.90
2023-05-26T15:02:16.937Z,2.90
2023-05-26T15:07:08.891Z,2.63
2023-05-26T15:12:00.817Z,2.57
2023-05-26T15:16:52.806Z,2.73
2023-05-26T15:21:44.949Z,3.30
2023-05-26T15:26:37.163Z,3.15
2023-05-26T15:31:29.204Z,2.70
2023-05-26T15:36:22.768Z,3.20
2023-05-26T15:41:15.023Z,2.70
2023-05-26T15:46:07.022Z,3.00
2023-05-26T15:50:59.222Z,2.90
2023-05-26T15:55:51.219Z,2.75
2023-05-26T16:00:43.224Z,3.27
2023-05-26T16:05:35.135Z,3.40
2023-05-26T16:10:27.342Z,3.00
2023-05-26T16:15:21.062Z,2.83
2023-05-26T16:20:13.380Z,2.80
2023-05-26T16:25:05.731Z,2.90
2023-05-26T16:29:57.963Z,2.90
2023-05-26T16:34:49.946Z,2.95
2023-05-26T16:39:42.132Z,2.57
2023-05-26T16:44:34.124Z,2.78
2023-05-26T16:49:26.156Z,2.67
2023-05-26T16:54:18.176Z,3.20
2023-05-26T16:59:10.225Z,2.87
2023-05-26T17:04:02.292Z,2.80
2023-05-26T17:08:54.262Z,2.85
2023-05-26T17:13:46.390Z,2.80
2023-05-26T17:18:38.469Z,2.63
2023-05-26T17:23:30.620Z,3.00
2023-05-26T17:28:24.105Z,2.50
2023-05-26T17:33:17.436Z,2.60
2023-05-26T17:38:10.699Z,2.88
2023-05-26T17:43:04.103Z,2.72
2023-05-26T17:47:56.195Z,3.07
2023-05-26T17:52:48.271Z,2.70
2023-05-26T17:57:40.688Z,2.75
2023-05-26T18:02:34.645Z,2.50
2023-05-26T18:07:26.647Z,2.83
2023-05-26T18:12:20.009Z,3.13
2023-05-26T18:17:13.006Z,2.92
2023-05-26T18:22:05.177Z,2.90
2023-05-26T18:26:57.331Z,3.00
2023-05-26T18:31:49.428Z,2.85
2023-05-26T18:36:41.402Z,2.80
2023-05-26T18:46:25.504Z,2.63
2023-05-26T18:51:18.922Z,2.60
2023-05-26T18:56:12.760Z,3.10
2023-05-26T19:01:04.954Z,2.67
2023-05-26T19:05:57.034Z,3.05
2023-05-26T19:10:49.110Z,3.03
2023-05-26T19:15:44.042Z,2.70
2023-05-26T19:20:35.977Z,3.08
2023-05-26T19:25:28.066Z,2.70
2023-05-26T19:30:20.014Z,2.97
2023-05-26T19:35:13.781Z,2.70
2023-05-26T19:40:08.013Z,2.80
2023-05-26T19:45:00.017Z,2.88
2023-05-26T19:49:51.896Z,2.70
2023-05-26T19:54:46.356Z,2.77
2023-05-26T19:59:38.498Z,2.70
2023-05-26T20:04:31.117Z,2.60
2023-05-26T20:14:15.006Z,2.78
2023-05-26T20:19:07.282Z,2.63
2023-05-26T20:23:59.228Z,2.95
2023-05-26T20:28:51.130Z,3.17
2023-05-26T20:33:43.016Z,3.27
2023-05-26T20:38:36.599Z,3.13
2023-05-26T20:43:28.534Z,3.33
2023-05-26T20:48:20.858Z,2.88
2023-05-26T20:53:12.810Z,2.78
2023-05-26T20:58:04.735Z,2.93
2023-05-26T21:02:57.923Z,2.73
2023-05-26T21:07:50.068Z,2.80
2023-05-26T21:12:41.902Z,2.80
2023-05-26T21:17:33.939Z,2.87
2023-05-26T21:22:25.956Z,2.97
2023-05-26T21:27:18.250Z,2.90
2023-05-26T21:32:10.198Z,2.67
2023-05-26T21:37:02.277Z,2.80
2023-05-26T21:41:54.436Z,2.73
2023-05-26T21:46:46.441Z,2.80
2023-05-26T21:51:38.690Z,2.60
2023-05-26T21:56:30.852Z,2.78
2023-05-26T22:01:22.880Z,2.78
2023-05-26T22:06:14.813Z,2.70
2023-05-26T22:11:06.756Z,2.77
2023-05-26T22:15:58.963Z,3.20
2023-05-26T22:20:51.164Z,2.90
2023-05-26T22:25:43.183Z,2.55
2023-05-26T22:30:35.061Z,3.03
2023-05-26T22:35:26.987Z,2.70
2023-05-26T22:40:18.890Z,3.13
2023-05-26T22:45:11.089Z,2.80
2023-05-26T22:50:03.465Z,2.92
2023-05-26T22:54:55.416Z,2.95
2023-05-26T22:59:47.356Z,3.03
2023-05-26T23:04:39.344Z,2.77
2023-05-26T23:09:31.359Z,2.87
2023-05-26T23:14:23.225Z,2.97
2023-05-26T23:19:15.076Z,2.97
2023-05-26T23:24:07.105Z,2.57
2023-05-26T23:28:58.977Z,3.03
2023-05-26T23:33:50.944Z,2.13
2023-05-26T23:38:42.817Z,3.10
2023-05-26T23:43:34.752Z,2.50
2023-05-26T23:48:26.572Z,2.90
2023-05-26T23:53:18.546Z,2.87
2023-05-26T23:58:10.477Z,2.63
